createdAt,value
2018-11-25T00:00:10.220Z,0
2018-11-25T00:01:09.970Z,0
2018-11-25T00:02:10.203Z,0
2018-11-25T00:03:10.218Z,0
2018-11-25T00:04:09.967Z,0
2018-11-25T00:05:09.925Z,0
2018-11-25T00:06:10.165Z,0
2018-11-25T00:07:09.924Z,0
2018-11-25T00:08:09.915Z,0
2018-11-25T00:09:10.144Z,0
2018-11-25T00:10:09.899Z,0
2018-11-25T00:11:09.922Z,0
2018-11-25T00:12:10.146Z,0
2018-11-25T00:13:09.609Z,0
2018-11-25T00:14:09.931Z,0
2018-11-25T00:15:09.629Z,0
2018-11-25T00:16:10.111Z,0
2018-11-25T00:17:09.836Z,0
2018-11-25T00:18:10.631Z,0
2018-11-25T00:19:10.077Z,0
2018-11-25T00:20:09.832Z,0
2018-11-25T00:21:09.810Z,0
2018-11-25T00:22:09.806Z,0
2018-11-25T00:23:09.539Z,0
2018-11-25T00:24:10.025Z,0
2018-11-25T00:25:10.036Z,0
2018-11-25T00:26:09.770Z,0
2018-11-25T00:27:10.012Z,0
2018-11-25T00:28:09.802Z,0
2018-11-25T00:29:10.009Z,0
2018-11-25T00:30:09.998Z,0
2018-11-25T00:31:16.701Z,0
2018-11-25T00:32:10.022Z,0
2018-11-25T00:33:09.726Z,0
2018-11-25T00:34:09.731Z,0
2018-11-25T00:35:09.987Z,0
2018-11-25T00:36:09.691Z,0
2018-11-25T00:37:09.697Z,0
2018-11-25T00:38:09.693Z,0
2018-11-25T00:39:09.933Z,0
2018-11-25T00:40:09.915Z,0
2018-11-25T00:41:09.893Z,0
2018-11-25T00:42:09.883Z,0
2018-11-25T00:43:09.904Z,0
2018-11-25T00:44:09.882Z,0
2018-11-25T00:45:09.362Z,0
2018-11-25T00:46:09.346Z,0
2018-11-25T00:47:09.594Z,0
2018-11-25T00:48:10.406Z,0
2018-11-25T00:49:09.582Z,0
2018-11-25T00:50:09.820Z,0
2018-11-25T00:51:09.834Z,0
2018-11-25T00:52:09.553Z,0
2018-11-25T00:53:09.546Z,0
2018-11-25T00:54:09.531Z,0
2018-11-25T00:55:09.752Z,0
2018-11-25T00:56:09.750Z,0
2018-11-25T00:57:09.765Z,0
2018-11-25T00:58:09.524Z,0
2018-11-25T00:59:10.949Z,0
2018-11-25T01:00:09.491Z,0
2018-11-25T01:01:09.484Z,0
2018-11-25T01:02:09.734Z,0
2018-11-25T01:03:09.458Z,0
2018-11-25T01:04:10.773Z,0
2018-11-25T01:05:09.520Z,0
2018-11-25T01:06:09.677Z,0
2018-11-25T01:07:09.431Z,0
2018-11-25T01:08:09.655Z,0
2018-11-25T01:09:09.655Z,0
2018-11-25T01:10:09.403Z,0
2018-11-25T01:11:09.629Z,0
2018-11-25T01:12:09.420Z,0
2018-11-25T01:13:09.627Z,0
2018-11-25T01:14:09.385Z,0
2018-11-25T01:15:09.639Z,0
2018-11-25T01:16:09.370Z,0
2018-11-25T01:17:09.366Z,0
2018-11-25T01:18:09.579Z,0
2018-11-25T01:19:09.327Z,0
2018-11-25T01:20:09.326Z,0
2018-11-25T01:21:09.574Z,0
2018-11-25T01:22:09.577Z,0
2018-11-25T01:23:09.300Z,0
2018-11-25T01:24:09.559Z,0
2018-11-25T01:25:09.312Z,0
2018-11-25T01:26:09.309Z,0
2018-11-25T01:27:09.501Z,0
2018-11-25T01:28:09.255Z,0
2018-11-25T01:29:09.526Z,0
2018-11-25T01:30:09.265Z,0
2018-11-25T01:31:09.478Z,0
2018-11-25T01:32:08.961Z,0
2018-11-25T01:33:09.463Z,0
2018-11-25T01:34:09.218Z,0
2018-11-25T01:35:10.707Z,0
2018-11-25T01:36:08.968Z,0
2018-11-25T01:37:09.471Z,0
2018-11-25T01:38:09.407Z,0
2018-11-25T01:39:09.390Z,0
2018-11-25T01:40:09.146Z,0
2018-11-25T01:41:09.374Z,0
2018-11-25T01:42:09.134Z,0
2018-11-25T01:43:08.853Z,0
2018-11-25T01:44:09.124Z,0
2018-11-25T01:45:09.339Z,0
2018-11-25T01:46:09.319Z,0
2018-11-25T01:47:09.331Z,0
2018-11-25T01:48:09.078Z,0
2018-11-25T01:49:08.649Z,0
2018-11-25T01:50:09.307Z,0
2018-11-25T01:51:09.314Z,0
2018-11-25T01:52:09.279Z,0
2018-11-25T01:53:08.775Z,0
2018-11-25T01:54:09.276Z,0
2018-11-25T01:55:08.757Z,0
2018-11-25T01:56:09.014Z,0
2018-11-25T01:57:09.223Z,0
2018-11-25T01:58:09.220Z,0
2018-11-25T01:59:10.009Z,0
2018-11-25T02:00:09.200Z,0
2018-11-25T02:01:09.220Z,0
2018-11-25T02:02:09.248Z,0
2018-11-25T02:03:08.934Z,0
2018-11-25T02:04:08.679Z,0
2018-11-25T02:05:09.167Z,0
2018-11-25T02:06:09.163Z,0
2018-11-25T02:07:08.895Z,0
2018-11-25T02:08:09.128Z,0
2018-11-25T02:09:09.114Z,0
2018-11-25T02:10:08.868Z,0
2018-11-25T02:11:09.096Z,0
2018-11-25T02:12:08.907Z,0
2018-11-25T02:13:08.825Z,0
2018-11-25T02:14:09.054Z,0
2018-11-25T02:15:09.069Z,0
2018-11-25T02:16:09.031Z,0
2018-11-25T02:17:09.018Z,0
2018-11-25T02:18:08.519Z,0
2018-11-25T02:19:09.563Z,0
2018-11-25T02:20:08.999Z,0
2018-11-25T02:21:08.507Z,0
2018-11-25T02:22:08.740Z,0
2018-11-25T02:23:08.965Z,0
2018-11-25T02:24:09.000Z,0
2018-11-25T02:25:08.711Z,0
2018-11-25T02:26:08.969Z,0
2018-11-25T02:27:08.965Z,0
2018-11-25T02:28:08.702Z,0
2018-11-25T02:29:08.920Z,0
2018-11-25T02:30:08.914Z,0
2018-11-25T02:31:08.896Z,0
2018-11-25T02:32:08.888Z,0
2018-11-25T02:33:08.919Z,0
2018-11-25T02:34:08.894Z,0
2018-11-25T02:35:08.624Z,0
2018-11-25T02:36:08.862Z,0
2018-11-25T02:37:08.862Z,0
2018-11-25T02:38:08.992Z,0
2018-11-25T02:39:08.844Z,0
2018-11-25T02:40:08.824Z,0
2018-11-25T02:41:08.861Z,0
2018-11-25T02:42:08.797Z,0
2018-11-25T02:43:08.790Z,0
2018-11-25T02:44:08.781Z,0
2018-11-25T02:45:08.780Z,0
2018-11-25T02:46:08.519Z,0
2018-11-25T02:47:08.500Z,0
2018-11-25T02:48:08.506Z,0
2018-11-25T02:49:08.474Z,0
2018-11-25T02:50:08.757Z,0
2018-11-25T02:51:08.206Z,0
2018-11-25T02:52:08.695Z,0
2018-11-25T02:53:08.717Z,0
2018-11-25T02:54:08.467Z,0
2018-11-25T02:55:08.440Z,0
2018-11-25T02:56:08.414Z,0
2018-11-25T02:57:08.384Z,0
2018-11-25T02:58:08.648Z,0
2018-11-25T02:59:08.633Z,0
2018-11-25T03:00:08.690Z,0
2018-11-25T03:01:08.603Z,0
2018-11-25T03:02:08.343Z,0
2018-11-25T03:03:08.597Z,0
2018-11-25T03:04:08.565Z,0
2018-11-25T03:05:08.570Z,0
2018-11-25T03:06:08.551Z,0
2018-11-25T03:07:08.567Z,0
2018-11-25T03:08:08.313Z,0
2018-11-25T03:09:08.542Z,0
2018-11-25T03:10:08.524Z,0
2018-11-25T03:11:08.527Z,0
2018-11-25T03:12:08.561Z,0
2018-11-25T03:13:08.251Z,0
2018-11-25T03:14:08.496Z,0
2018-11-25T03:15:08.235Z,0
2018-11-25T03:16:08.205Z,0
2018-11-25T03:17:08.473Z,0
2018-11-25T03:18:08.192Z,0
2018-11-25T03:19:08.435Z,0
2018-11-25T03:20:08.423Z,0
2018-11-25T03:21:08.181Z,0
2018-11-25T03:22:08.173Z,0
2018-11-25T03:23:08.415Z,0
2018-11-25T03:24:08.996Z,0
2018-11-25T03:25:08.444Z,0
2018-11-25T03:26:08.428Z,0
2018-11-25T03:27:08.345Z,0
2018-11-25T03:28:08.424Z,0
2018-11-25T03:29:08.098Z,0
2018-11-25T03:30:08.326Z,0
2018-11-25T03:31:08.313Z,0
2018-11-25T03:32:08.090Z,0
2018-11-25T03:33:08.039Z,0
2018-11-25T03:34:08.059Z,0
2018-11-25T03:35:08.341Z,0
2018-11-25T03:36:08.025Z,0
2018-11-25T03:37:08.270Z,0
2018-11-25T03:38:08.259Z,0
2018-11-25T03:39:07.990Z,0
2018-11-25T03:40:08.222Z,0
2018-11-25T03:41:08.275Z,0
2018-11-25T03:42:08.281Z,0
2018-11-25T03:43:07.688Z,0
2018-11-25T03:44:08.174Z,0
2018-11-25T03:45:07.707Z,0
2018-11-25T03:46:08.150Z,0
2018-11-25T03:47:08.170Z,0
2018-11-25T03:48:08.136Z,0
2018-11-25T03:49:08.113Z,0
2018-11-25T03:50:07.864Z,0
2018-11-25T03:51:08.104Z,0
2018-11-25T03:52:08.117Z,0
2018-11-25T03:53:08.069Z,0
2018-11-25T03:54:07.849Z,0
2018-11-25T03:55:08.048Z,0
2018-11-25T03:56:08.052Z,0
2018-11-25T03:57:07.813Z,0
2018-11-25T03:58:07.593Z,0
2018-11-25T03:59:08.006Z,0
2018-11-25T04:00:07.783Z,0
2018-11-25T04:01:07.757Z,0
2018-11-25T04:02:07.991Z,0
2018-11-25T04:03:07.961Z,0
2018-11-25T04:04:08.041Z,0
2018-11-25T04:05:08.016Z,0
2018-11-25T04:06:07.940Z,0
2018-11-25T04:07:07.944Z,0
2018-11-25T04:08:07.926Z,0
2018-11-25T04:09:07.941Z,0
2018-11-25T04:10:07.898Z,0
2018-11-25T04:11:07.641Z,0
2018-11-25T04:12:07.885Z,0
2018-11-25T04:13:07.663Z,0
2018-11-25T04:14:07.604Z,0
2018-11-25T04:15:07.866Z,0
2018-11-25T04:16:07.840Z,0
2018-11-25T04:17:07.829Z,0
2018-11-25T04:18:07.607Z,0
2018-11-25T04:19:07.823Z,0
2018-11-25T04:20:08.595Z,0
2018-11-25T04:21:07.521Z,0
2018-11-25T04:22:07.785Z,0
2018-11-25T04:23:07.772Z,0
2018-11-25T04:24:07.575Z,0
2018-11-25T04:25:07.041Z,0
2018-11-25T04:26:07.721Z,0
2018-11-25T04:27:07.732Z,0
2018-11-25T04:28:07.726Z,0
2018-11-25T04:29:07.739Z,0
2018-11-25T04:30:07.453Z,0
2018-11-25T04:31:07.427Z,0
2018-11-25T04:32:07.685Z,0
2018-11-25T04:33:07.659Z,0
2018-11-25T04:34:07.196Z,0
2018-11-25T04:35:07.609Z,0
2018-11-25T04:36:07.666Z,0
2018-11-25T04:37:07.387Z,0
2018-11-25T04:38:07.391Z,0
2018-11-25T04:39:07.417Z,0
2018-11-25T04:40:07.092Z,0
2018-11-25T04:41:07.082Z,0
2018-11-25T04:42:07.600Z,0
2018-11-25T04:43:07.306Z,0
2018-11-25T04:44:07.302Z,0
2018-11-25T04:45:07.514Z,0
2018-11-25T04:46:07.026Z,0
2018-11-25T04:47:07.517Z,0
2018-11-25T04:48:07.303Z,0
2018-11-25T04:49:07.530Z,0
2018-11-25T04:50:07.506Z,0
2018-11-25T04:51:07.483Z,0
2018-11-25T04:52:07.233Z,0
2018-11-25T04:53:07.452Z,0
2018-11-25T04:54:07.412Z,0
2018-11-25T04:55:06.929Z,0
2018-11-25T04:56:07.391Z,0
2018-11-25T04:57:07.137Z,0
2018-11-25T04:58:07.412Z,0
2018-11-25T04:59:06.931Z,0
2018-11-25T05:00:07.356Z,0
2018-11-25T05:01:07.121Z,0
2018-11-25T05:02:07.361Z,0
2018-11-25T05:03:07.115Z,0
2018-11-25T05:04:07.082Z,0
2018-11-25T05:05:07.316Z,0
2018-11-25T05:06:07.080Z,0
2018-11-25T05:07:07.287Z,0
2018-11-25T05:08:07.034Z,0
2018-11-25T05:09:07.280Z,0
2018-11-25T05:10:06.998Z,0
2018-11-25T05:11:06.757Z,0
2018-11-25T05:12:07.244Z,0
2018-11-25T05:13:06.988Z,0
2018-11-25T05:14:06.985Z,0
2018-11-25T05:15:06.718Z,0
2018-11-25T05:16:06.951Z,0
2018-11-25T05:17:06.961Z,0
2018-11-25T05:18:07.192Z,0
2018-11-25T05:19:06.939Z,0
2018-11-25T05:20:06.943Z,0
2018-11-25T05:21:07.138Z,0
2018-11-25T05:22:06.917Z,0
2018-11-25T05:23:07.149Z,0
2018-11-25T05:24:07.139Z,0
2018-11-25T05:25:06.864Z,0
2018-11-25T05:26:06.844Z,0
2018-11-25T05:27:07.085Z,0
2018-11-25T05:28:07.088Z,0
2018-11-25T05:29:07.056Z,0
2018-11-25T05:30:07.039Z,0
2018-11-25T05:31:06.812Z,0
2018-11-25T05:32:07.033Z,0
2018-11-25T05:33:07.040Z,0
2018-11-25T05:34:07.020Z,0
2018-11-25T05:35:06.981Z,0
2018-11-25T05:36:06.994Z,0
2018-11-25T05:37:06.219Z,0
2018-11-25T05:38:06.957Z,0
2018-11-25T05:39:06.957Z,0
2018-11-25T05:40:06.985Z,0
2018-11-25T05:41:06.676Z,0
2018-11-25T05:42:06.952Z,0
2018-11-25T05:43:06.652Z,0
2018-11-25T05:44:06.895Z,0
2018-11-25T05:45:06.651Z,0
2018-11-25T05:46:06.385Z,0
2018-11-25T05:47:06.618Z,0
2018-11-25T05:48:06.877Z,0
2018-11-25T05:49:06.856Z,0
2018-11-25T05:50:06.616Z,0
2018-11-25T05:51:06.845Z,0
2018-11-25T05:52:06.813Z,0
2018-11-25T05:53:06.795Z,0
2018-11-25T05:54:06.531Z,0
2018-11-25T05:55:06.517Z,0
2018-11-25T05:56:06.757Z,0
2018-11-25T05:57:06.779Z,0
2018-11-25T05:58:06.738Z,0
2018-11-25T05:59:06.745Z,0
2018-11-25T06:00:06.732Z,0
2018-11-25T06:01:06.743Z,0
2018-11-25T06:02:06.715Z,0
2018-11-25T06:03:06.189Z,0
2018-11-25T06:04:06.431Z,0
2018-11-25T06:05:06.421Z,0
2018-11-25T06:06:06.648Z,0
2018-11-25T06:07:06.414Z,0
2018-11-25T06:08:06.649Z,0
2018-11-25T06:09:06.648Z,0
2018-11-25T06:10:06.610Z,0
2018-11-25T06:11:06.378Z,0
2018-11-25T06:12:06.620Z,0
2018-11-25T06:13:06.333Z,0
2018-11-25T06:14:06.575Z,0
2018-11-25T06:15:06.562Z,0
2018-11-25T06:16:06.540Z,0
2018-11-25T06:17:06.293Z,0
2018-11-25T06:18:06.259Z,0
2018-11-25T06:19:06.498Z,0
2018-11-25T06:20:06.245Z,0
2018-11-25T06:21:08.071Z,0
2018-11-25T06:22:06.232Z,0
2018-11-25T06:23:05.975Z,0
2018-11-25T06:24:06.442Z,0
2018-11-25T06:25:06.231Z,0
2018-11-25T06:26:07.250Z,0
2018-11-25T06:27:06.418Z,0
2018-11-25T06:28:06.172Z,0
2018-11-25T06:29:06.407Z,0
2018-11-25T06:30:06.404Z,0
2018-11-25T06:31:06.379Z,0
2018-11-25T06:32:06.384Z,0
2018-11-25T06:33:06.376Z,0
2018-11-25T06:34:06.384Z,0
2018-11-25T06:35:06.384Z,0
2018-11-25T06:36:06.091Z,0
2018-11-25T06:37:06.077Z,0
2018-11-25T06:38:06.330Z,0
2018-11-25T06:39:05.541Z,0
2018-11-25T06:40:05.811Z,0
2018-11-25T06:41:06.027Z,0
2018-11-25T06:42:06.019Z,0
2018-11-25T06:43:05.754Z,5
2018-11-25T06:44:06.268Z,5
2018-11-25T06:45:06.046Z,5
2018-11-25T06:46:05.972Z,5
2018-11-25T06:47:05.955Z,5
2018-11-25T06:48:06.200Z,5
2018-11-25T06:49:05.956Z,5
2018-11-25T06:50:06.177Z,5
2018-11-25T06:51:06.712Z,10
2018-11-25T06:52:05.943Z,10
2018-11-25T06:53:05.644Z,10
2018-11-25T06:54:06.141Z,10
2018-11-25T06:55:05.890Z,10
2018-11-25T06:56:06.115Z,10
2018-11-25T06:57:06.201Z,15
2018-11-25T06:58:05.853Z,15
2018-11-25T06:59:06.104Z,15
2018-11-25T07:00:05.824Z,15
2018-11-25T07:01:05.590Z,15
2018-11-25T07:02:06.059Z,20
2018-11-25T07:03:05.808Z,20
2018-11-25T07:04:06.031Z,20
2018-11-25T07:05:06.010Z,20
2018-11-25T07:06:06.018Z,25
2018-11-25T07:07:05.769Z,25
2018-11-25T07:08:05.575Z,25
2018-11-25T07:09:05.969Z,25
2018-11-25T07:10:05.967Z,30
2018-11-25T07:11:05.952Z,30
2018-11-25T07:12:05.694Z,30
2018-11-25T07:13:05.684Z,35
2018-11-25T07:14:05.917Z,35
2018-11-25T07:15:05.403Z,35
2018-11-25T07:16:06.532Z,35
2018-11-25T07:17:05.401Z,35
2018-11-25T07:18:05.635Z,40
2018-11-25T07:19:05.878Z,40
2018-11-25T07:20:05.846Z,40
2018-11-25T07:21:05.588Z,45
2018-11-25T07:22:05.853Z,45
2018-11-25T07:23:05.574Z,45
2018-11-25T07:24:05.819Z,45
2018-11-25T07:25:05.553Z,50
2018-11-25T07:26:05.587Z,50
2018-11-25T07:27:05.789Z,50
2018-11-25T07:28:22.741Z,55
2018-11-25T07:29:05.775Z,55
2018-11-25T07:30:12.146Z,55
2018-11-25T07:31:05.499Z,55
2018-11-25T07:32:05.486Z,60
2018-11-25T07:33:05.717Z,60
2018-11-25T07:34:05.707Z,60
2018-11-25T07:35:05.460Z,65
2018-11-25T07:36:05.675Z,65
2018-11-25T07:37:05.700Z,65
2018-11-25T07:38:05.196Z,65
2018-11-25T07:39:05.446Z,65
2018-11-25T07:40:05.648Z,70
2018-11-25T07:41:05.373Z,70
2018-11-25T07:42:05.618Z,70
2018-11-25T07:43:05.617Z,70
2018-11-25T07:44:05.597Z,70
2018-11-25T07:45:05.338Z,75
2018-11-25T07:46:05.560Z,75
2018-11-25T07:47:05.058Z,75
2018-11-25T07:48:05.061Z,75
2018-11-25T07:49:05.550Z,80
2018-11-25T07:50:05.518Z,80
2018-11-25T07:51:05.919Z,80
2018-11-25T07:52:06.132Z,80
2018-11-25T07:53:05.498Z,80
2018-11-25T07:54:05.259Z,85
2018-11-25T07:55:05.540Z,85
2018-11-25T07:56:04.960Z,85
2018-11-25T07:57:05.787Z,85
2018-11-25T07:58:05.209Z,85
2018-11-25T07:59:05.445Z,90
2018-11-25T08:00:05.197Z,90
2018-11-25T08:01:04.916Z,90
2018-11-25T08:02:05.168Z,90
2018-11-25T08:03:04.889Z,90
2018-11-25T08:04:05.395Z,90
2018-11-25T08:05:05.396Z,95
2018-11-25T08:06:05.375Z,95
2018-11-25T08:07:05.914Z,95
2018-11-25T08:08:05.088Z,95
2018-11-25T08:09:05.317Z,95
2018-11-25T08:10:05.079Z,95
2018-11-25T08:11:05.302Z,100
2018-11-25T08:12:05.048Z,100
2018-11-25T08:13:06.147Z,95
2018-11-25T08:14:05.033Z,95
2018-11-25T08:15:05.278Z,95
2018-11-25T08:16:05.326Z,100
2018-11-25T08:17:05.249Z,100
2018-11-25T08:18:05.240Z,100
2018-11-25T08:19:05.226Z,100
2018-11-25T08:20:04.972Z,100
2018-11-25T08:21:05.197Z,100
2018-11-25T08:22:05.751Z,105
2018-11-25T08:23:04.958Z,105
2018-11-25T08:24:04.953Z,105
2018-11-25T08:25:04.938Z,105
2018-11-25T08:26:04.961Z,105
2018-11-25T08:27:05.150Z,105
2018-11-25T08:28:05.169Z,105
2018-11-25T08:29:04.672Z,110
2018-11-25T08:30:05.140Z,110
2018-11-25T08:31:04.859Z,110
2018-11-25T08:32:05.113Z,110
2018-11-25T08:33:04.841Z,110
2018-11-25T08:34:04.844Z,115
2018-11-25T08:35:05.088Z,120
2018-11-25T08:36:04.807Z,115
2018-11-25T08:37:04.549Z,115
2018-11-25T08:38:05.050Z,115
2018-11-25T08:39:05.038Z,115
2018-11-25T08:40:05.015Z,120
2018-11-25T08:41:05.020Z,120
2018-11-25T08:42:05.015Z,120
2018-11-25T08:43:04.511Z,120
2018-11-25T08:44:04.753Z,120
2018-11-25T08:45:04.979Z,120
2018-11-25T08:46:04.960Z,125
2018-11-25T08:47:04.953Z,125
2018-11-25T08:48:04.709Z,125
2018-11-25T08:49:04.986Z,125
2018-11-25T08:50:04.658Z,125
2018-11-25T08:51:05.220Z,130
2018-11-25T08:52:04.653Z,130
2018-11-25T08:53:04.385Z,130
2018-11-25T08:54:04.873Z,130
2018-11-25T08:55:04.877Z,135
2018-11-25T08:56:04.858Z,135
2018-11-25T08:57:04.882Z,135
2018-11-25T08:58:04.586Z,140
2018-11-25T08:59:04.834Z,140
2018-11-25T09:00:04.855Z,140
2018-11-25T09:01:04.834Z,140
2018-11-25T09:02:04.807Z,140
2018-11-25T09:03:04.061Z,145
2018-11-25T09:04:04.808Z,145
2018-11-25T09:05:04.520Z,145
2018-11-25T09:06:04.763Z,145
2018-11-25T09:07:04.499Z,145
2018-11-25T09:08:04.762Z,145
2018-11-25T09:09:04.722Z,140
2018-11-25T09:10:04.755Z,135
2018-11-25T09:11:04.731Z,130
2018-11-25T09:12:04.687Z,125
2018-11-25T09:13:05.909Z,130
2018-11-25T09:14:04.686Z,140
2018-11-25T09:15:04.687Z,145
2018-11-25T09:16:04.693Z,145
2018-11-25T09:17:04.661Z,140
2018-11-25T09:18:04.726Z,140
2018-11-25T09:19:04.395Z,145
2018-11-25T09:20:04.671Z,145
2018-11-25T09:21:04.642Z,155
2018-11-25T09:22:04.690Z,155
2018-11-25T09:23:04.622Z,145
2018-11-25T09:24:04.380Z,150
2018-11-25T09:25:04.405Z,145
2018-11-25T09:26:04.613Z,170
2018-11-25T09:27:04.588Z,180
2018-11-25T09:28:04.401Z,180
2018-11-25T09:29:04.578Z,155
2018-11-25T09:30:04.325Z,145
2018-11-25T09:31:04.315Z,175
2018-11-25T09:32:04.622Z,190
2018-11-25T09:33:04.565Z,205
2018-11-25T09:34:04.282Z,200
2018-11-25T09:35:04.523Z,210
2018-11-25T09:36:04.036Z,215
2018-11-25T09:37:04.601Z,215
2018-11-25T09:38:04.507Z,200
2018-11-25T09:39:04.234Z,200
2018-11-25T09:40:04.522Z,205
2018-11-25T09:41:08.752Z,215
2018-11-25T09:42:04.457Z,205
2018-11-25T09:43:04.484Z,170
2018-11-25T09:44:04.456Z,210
2018-11-25T09:45:04.184Z,210
2018-11-25T09:46:03.968Z,195
2018-11-25T09:47:04.159Z,195
2018-11-25T09:48:04.416Z,190
2018-11-25T09:49:04.386Z,185
2018-11-25T09:50:04.174Z,180
2018-11-25T09:51:04.383Z,175
2018-11-25T09:52:04.364Z,175
2018-11-25T09:53:05.210Z,175
2018-11-25T09:54:04.109Z,175
2018-11-25T09:55:03.881Z,170
2018-11-25T09:56:04.107Z,165
2018-11-25T09:57:04.091Z,170
2018-11-25T09:58:04.348Z,170
2018-11-25T09:59:04.374Z,170
2018-11-25T10:00:04.321Z,170
2018-11-25T10:01:04.360Z,170
2018-11-25T10:02:04.091Z,170
2018-11-25T10:03:04.324Z,170
2018-11-25T10:04:04.356Z,175
2018-11-25T10:05:04.304Z,175
2018-11-25T10:06:04.028Z,175
2018-11-25T10:07:04.326Z,170
2018-11-25T10:08:04.034Z,170
2018-11-25T10:09:04.270Z,170
2018-11-25T10:10:03.775Z,170
2018-11-25T10:11:03.996Z,165
2018-11-25T10:12:03.997Z,165
2018-11-25T10:13:04.295Z,165
2018-11-25T10:14:04.026Z,165
2018-11-25T10:15:03.965Z,165
2018-11-25T10:16:04.215Z,165
2018-11-25T10:17:04.223Z,160
2018-11-25T10:18:08.957Z,160
2018-11-25T10:19:04.209Z,160
2018-11-25T10:20:04.177Z,165
2018-11-25T10:21:04.191Z,160
2018-11-25T10:22:03.706Z,160
2018-11-25T10:23:04.166Z,160
2018-11-25T10:24:04.149Z,160
2018-11-25T10:25:04.144Z,160
2018-11-25T10:26:04.135Z,160
2018-11-25T10:27:03.879Z,160
2018-11-25T10:28:04.175Z,160
2018-11-25T10:29:04.112Z,160
2018-11-25T10:30:03.875Z,160
2018-11-25T10:31:03.866Z,165
2018-11-25T10:32:04.120Z,160
2018-11-25T10:33:04.105Z,160
2018-11-25T10:34:04.111Z,165
2018-11-25T10:35:04.078Z,165
2018-11-25T10:36:07.066Z,165
2018-11-25T10:37:03.838Z,165
2018-11-25T10:38:03.803Z,165
2018-11-25T10:39:04.081Z,165
2018-11-25T10:40:03.865Z,165
2018-11-25T10:41:04.053Z,165
2018-11-25T10:42:03.789Z,165
2018-11-25T10:43:04.009Z,165
2018-11-25T10:44:04.012Z,165
2018-11-25T10:45:03.779Z,165
2018-11-25T10:46:03.748Z,165
2018-11-25T10:47:04.018Z,165
2018-11-25T10:48:04.052Z,170
2018-11-25T10:49:04.015Z,175
2018-11-25T10:50:03.988Z,175
2018-11-25T10:51:03.992Z,180
2018-11-25T10:52:03.720Z,180
2018-11-25T10:53:03.714Z,170
2018-11-25T10:54:03.956Z,170
2018-11-25T10:55:03.466Z,165
2018-11-25T10:56:03.936Z,165
2018-11-25T10:57:03.675Z,175
2018-11-25T10:58:03.677Z,175
2018-11-25T10:59:03.931Z,180
2018-11-25T11:00:03.680Z,175
2018-11-25T11:01:03.710Z,175
2018-11-25T11:02:03.661Z,175
2018-11-25T11:03:03.406Z,180
2018-11-25T11:04:03.718Z,180
2018-11-25T11:05:03.877Z,180
2018-11-25T11:06:03.656Z,185
2018-11-25T11:07:03.887Z,185
2018-11-25T11:08:03.876Z,185
2018-11-25T11:09:03.374Z,185
2018-11-25T11:10:03.848Z,185
2018-11-25T11:11:03.595Z,185
2018-11-25T11:12:03.597Z,185
2018-11-25T11:13:03.824Z,185
2018-11-25T11:14:03.601Z,180
2018-11-25T11:15:03.593Z,180
2018-11-25T11:16:03.803Z,180
2018-11-25T11:17:03.821Z,175
2018-11-25T11:18:03.798Z,175
2018-11-25T11:19:03.810Z,170
2018-11-25T11:20:03.778Z,170
2018-11-25T11:21:03.555Z,170
2018-11-25T11:22:03.812Z,170
2018-11-25T11:23:03.298Z,170
2018-11-25T11:24:03.752Z,165
2018-11-25T11:25:03.771Z,170
2018-11-25T11:26:11.349Z,165
2018-11-25T11:27:03.767Z,165
2018-11-25T11:28:03.498Z,165
2018-11-25T11:29:03.507Z,165
2018-11-25T11:30:03.745Z,165
2018-11-25T11:31:03.736Z,160
2018-11-25T11:32:03.737Z,165
2018-11-25T11:33:03.228Z,165
2018-11-25T11:34:03.460Z,165
2018-11-25T11:35:03.463Z,165
2018-11-25T11:36:03.714Z,165
2018-11-25T11:37:03.538Z,165
2018-11-25T11:38:03.533Z,165
2018-11-25T11:39:03.715Z,165
2018-11-25T11:40:03.701Z,165
2018-11-25T11:41:03.450Z,165
2018-11-25T11:42:03.420Z,160
2018-11-25T11:43:03.153Z,160
2018-11-25T11:44:03.644Z,160
2018-11-25T11:45:03.666Z,160
2018-11-25T11:46:03.668Z,160
2018-11-25T11:47:03.415Z,160
2018-11-25T11:48:03.656Z,155
2018-11-25T11:49:03.696Z,155
2018-11-25T11:50:03.440Z,155
2018-11-25T11:51:03.387Z,155
2018-11-25T11:52:03.616Z,155
2018-11-25T11:53:03.668Z,155
2018-11-25T11:54:03.995Z,155
2018-11-25T11:55:03.446Z,155
2018-11-25T11:56:03.370Z,155
2018-11-25T11:57:03.605Z,155
2018-11-25T11:58:03.619Z,155
2018-11-25T11:59:03.093Z,150
2018-11-25T12:00:03.593Z,150
2018-11-25T12:01:03.587Z,150
2018-11-25T12:02:03.339Z,150
2018-11-25T12:03:02.850Z,150
2018-11-25T12:04:03.597Z,150
2018-11-25T12:05:03.556Z,150
2018-11-25T12:06:03.597Z,150
2018-11-25T12:07:03.549Z,150
2018-11-25T12:08:03.334Z,150
2018-11-25T12:09:03.305Z,150
2018-11-25T12:10:03.300Z,150
2018-11-25T12:11:03.539Z,145
2018-11-25T12:12:03.525Z,145
2018-11-25T12:13:03.550Z,145
2018-11-25T12:14:03.571Z,145
2018-11-25T12:15:03.506Z,145
2018-11-25T12:16:03.538Z,145
2018-11-25T12:17:03.295Z,145
2018-11-25T12:18:03.059Z,145
2018-11-25T12:19:03.505Z,145
2018-11-25T12:20:03.254Z,145
2018-11-25T12:21:03.240Z,145
2018-11-25T12:22:07.674Z,145
2018-11-25T12:23:03.244Z,145
2018-11-25T12:24:04.291Z,145
2018-11-25T12:25:03.232Z,145
2018-11-25T12:26:03.463Z,145
2018-11-25T12:27:03.457Z,145
2018-11-25T12:28:02.990Z,145
2018-11-25T12:29:03.456Z,145
2018-11-25T12:30:02.965Z,145
2018-11-25T12:31:03.442Z,145
2018-11-25T12:32:03.459Z,145
2018-11-25T12:33:03.232Z,145
2018-11-25T12:34:03.204Z,145
2018-11-25T12:35:03.420Z,145
2018-11-25T12:36:03.172Z,140
2018-11-25T12:37:03.403Z,140
2018-11-25T12:38:03.179Z,140
2018-11-25T12:39:03.409Z,140
2018-11-25T12:40:03.390Z,135
2018-11-25T12:41:03.391Z,135
2018-11-25T12:42:04.283Z,135
2018-11-25T12:43:02.919Z,135
2018-11-25T12:44:02.915Z,140
2018-11-25T12:45:03.398Z,135
2018-11-25T12:46:03.197Z,135
2018-11-25T12:47:03.393Z,135
2018-11-25T12:48:03.377Z,135
2018-11-25T12:49:03.126Z,135
2018-11-25T12:50:03.116Z,135
2018-11-25T12:51:03.683Z,135
2018-11-25T12:52:02.880Z,135
2018-11-25T12:53:04.432Z,135
2018-11-25T12:54:04.153Z,135
2018-11-25T12:55:03.353Z,135
2018-11-25T12:56:03.077Z,135
2018-11-25T12:57:03.089Z,135
2018-11-25T12:58:03.315Z,135
2018-11-25T12:59:03.338Z,135
2018-11-25T13:00:02.869Z,135
2018-11-25T13:01:03.323Z,135
2018-11-25T13:02:03.352Z,135
2018-11-25T13:03:03.327Z,135
2018-11-25T13:04:03.306Z,135
2018-11-25T13:05:03.305Z,135
2018-11-25T13:06:03.335Z,135
2018-11-25T13:07:03.303Z,135
2018-11-25T13:08:03.314Z,135
2018-11-25T13:09:03.301Z,130
2018-11-25T13:10:03.280Z,130
2018-11-25T13:11:03.265Z,130
2018-11-25T13:12:03.296Z,130
2018-11-25T13:13:03.262Z,130
2018-11-25T13:14:03.038Z,125
2018-11-25T13:15:03.298Z,125
2018-11-25T13:16:02.814Z,125
2018-11-25T13:17:03.260Z,125
2018-11-25T13:18:02.808Z,125
2018-11-25T13:19:03.254Z,120
2018-11-25T13:20:03.062Z,120
2018-11-25T13:21:02.999Z,120
2018-11-25T13:22:03.011Z,120
2018-11-25T13:23:02.749Z,120
2018-11-25T13:24:04.070Z,115
2018-11-25T13:25:03.970Z,115
2018-11-25T13:26:03.205Z,115
2018-11-25T13:27:02.979Z,115
2018-11-25T13:28:03.223Z,115
2018-11-25T13:29:03.194Z,110
2018-11-25T13:30:02.949Z,110
2018-11-25T13:31:02.958Z,110
2018-11-25T13:32:02.937Z,110
2018-11-25T13:33:02.949Z,110
2018-11-25T13:34:03.200Z,110
2018-11-25T13:35:02.949Z,105
2018-11-25T13:36:02.944Z,105
2018-11-25T13:37:02.956Z,105
2018-11-25T13:38:02.959Z,105
2018-11-25T13:39:02.942Z,105
2018-11-25T13:40:02.749Z,105
2018-11-25T13:41:02.913Z,100
2018-11-25T13:42:02.915Z,100
2018-11-25T13:43:02.932Z,100
2018-11-25T13:44:03.153Z,100
2018-11-25T13:45:02.395Z,95
2018-11-25T13:46:03.132Z,100
2018-11-25T13:47:03.118Z,100
2018-11-25T13:48:02.874Z,100
2018-11-25T13:49:03.190Z,95
2018-11-25T13:50:03.133Z,95
2018-11-25T13:51:02.886Z,95
2018-11-25T13:52:02.888Z,95
2018-11-25T13:53:03.090Z,90
2018-11-25T13:54:03.467Z,90
2018-11-25T13:55:03.904Z,90
2018-11-25T13:56:03.089Z,90
2018-11-25T13:57:02.888Z,90
2018-11-25T13:58:03.105Z,85
2018-11-25T13:59:03.071Z,85
2018-11-25T14:00:03.085Z,85
2018-11-25T14:01:02.826Z,85
2018-11-25T14:02:02.839Z,85
2018-11-25T14:03:03.170Z,85
2018-11-25T14:04:02.831Z,85
2018-11-25T14:05:02.865Z,85
2018-11-25T14:06:03.017Z,85
2018-11-25T14:07:03.052Z,80
2018-11-25T14:08:02.835Z,80
2018-11-25T14:09:02.541Z,80
2018-11-25T14:10:03.059Z,80
2018-11-25T14:11:03.023Z,80
2018-11-25T14:12:03.053Z,80
2018-11-25T14:13:03.046Z,80
2018-11-25T14:14:02.806Z,80
2018-11-25T14:15:02.548Z,75
2018-11-25T14:16:02.795Z,75
2018-11-25T14:17:02.535Z,75
2018-11-25T14:18:03.018Z,75